Time;durP1;ratioP1;P1;durP2;ratioP2;P2;SDS_P1;SDS_P2;PMS_P1;PMS_P2;Temp;Humidity;BMP_temperature;BMP_pressure;BME280_temperature;BME280_humidity;BME280_pressure;Samples;Min_cycle;Max_cycle;Signal;HPM_P1;HPM_P2
2021/08/12 00:01:55;;;;;;;0.10;0.10;;;18.50;99.90;;;;;;5012073;28;20285;-83
2021/08/12 00:04:21;;;;;;;0.20;0.20;;;18.50;99.90;;;;;;5013299;28;20821;-83
2021/08/12 00:06:47;;;;;;;0.77;0.77;;;18.50;99.90;;;;;;5012928;28;20195;-82
2021/08/12 00:09:12;;;;;;;0.43;0.40;;;18.60;99.90;;;;;;5029114;28;20191;-83
2021/08/12 00:11:38;;;;;;;0.40;0.40;;;18.70;99.90;;;;;;5015794;28;20706;-82
2021/08/12 00:14:04;;;;;;;0.40;0.40;;;18.80;99.90;;;;;;5016124;28;20348;-82
2021/08/12 00:16:30;;;;;;;0.43;0.43;;;18.70;99.90;;;;;;5016246;28;20191;-83
2021/08/12 00:18:55;;;;;;;0.40;0.40;;;18.80;99.90;;;;;;5015302;28;20197;-83
2021/08/12 00:21:24;;;;;;;2.10;0.70;;;18.90;99.90;;;;;;5032970;28;20300;-83
2021/08/12 00:23:51;;;;;;;0.20;0.20;;;19.00;99.90;;;;;;5016934;28;20190;-83
2021/08/12 00:26:17;;;;;;;0.50;0.47;;;19.00;99.90;;;;;;5015729;28;20190;-82
2021/08/12 00:28:42;;;;;;;0.77;0.20;;;18.80;99.90;;;;;;5016022;28;20241;-83
2021/08/12 00:31:08;;;;;;;1.43;0.67;;;18.70;99.90;;;;;;5014367;28;20210;-84
2021/08/12 00:33:34;;;;;;;0.67;0.50;;;18.70;99.90;;;;;;5020609;28;20180;-83
2021/08/12 00:36:01;;;;;;;0.40;0.40;;;18.80;99.90;;;;;;5015359;28;20194;-83
2021/08/12 00:38:27;;;;;;;0.20;0.20;;;18.80;99.90;;;;;;5033024;28;20651;-83
2021/08/12 00:40:52;;;;;;;2.50;0.30;;;18.80;99.90;;;;;;5033528;28;20179;-83
2021/08/12 00:43:18;;;;;;;0.57;0.57;;;18.80;99.90;;;;;;5016168;28;20229;-83
2021/08/12 00:45:44;;;;;;;0.20;0.20;;;18.80;99.90;;;;;;5015932;28;20593;-83
2021/08/12 00:48:09;;;;;;;0.70;0.30;;;18.90;99.90;;;;;;5033316;28;20183;-83
2021/08/12 00:50:38;;;;;;;0.47;0.47;;;18.90;99.90;;;;;;5015849;28;20186;-82
2021/08/12 00:53:04;;;;;;;0.47;0.37;;;18.90;99.90;;;;;;5030163;28;20187;-83
2021/08/12 00:55:30;;;;;;;1.80;1.03;;;18.80;99.90;;;;;;5015315;28;20193;-83
2021/08/12 00:57:55;;;;;;;2.70;0.60;;;18.70;99.90;;;;;;5032983;28;20174;-81
2021/08/12 01:00:21;;;;;;;0.20;0.20;;;18.70;99.90;;;;;;5015659;28;20195;-83
2021/08/12 01:02:46;;;;;;;0.20;0.20;;;18.80;99.90;;;;;;5015504;28;20280;-82
2021/08/12 01:05:12;;;;;;;0.40;0.40;;;18.60;99.90;;;;;;5015475;28;20190;-83
2021/08/12 01:07:55;;;;;;;0.30;0.30;;;18.70;99.90;;;;;;5032754;28;20190;-83
2021/08/12 01:10:33;;;;;;;0.30;0.30;;;18.70;99.90;;;;;;5022782;28;20179;-83
2021/08/12 01:13:06;;;;;;;0.57;0.33;;;18.80;99.90;;;;;;5014823;28;20293;-83
2021/08/12 01:15:39;;;;;;;0.60;0.60;;;18.90;99.90;;;;;;5014945;28;20194;-82
2021/08/12 01:18:34;;;;;;;0.43;0.30;;;18.70;99.90;;;;;;5031963;28;20178;-83
2021/08/12 01:21:29;;;;;;;0.40;0.40;;;18.60;99.90;;;;;;5003021;28;20226;-83
2021/08/12 01:24:00;;;;;;;0.47;0.47;;;18.60;99.90;;;;;;5007899;28;20244;-83
2021/08/12 01:26:28;;;;;;;0.87;0.47;;;18.70;99.90;;;;;;5014423;28;20273;-83
2021/08/12 01:28:56;;;;;;;1.07;0.33;;;18.90;99.90;;;;;;5032679;28;20182;-82
2021/08/12 01:31:30;;;;;;;0.23;0.23;;;18.90;99.90;;;;;;5013968;28;20203;-83
2021/08/12 01:34:11;;;;;;;0.30;0.30;;;19.00;99.90;;;;;;5032404;28;20174;-83
2021/08/12 01:36:42;;;;;;;0.73;0.73;;;19.10;99.90;;;;;;5021343;28;20175;-83
2021/08/12 01:39:11;;;;;;;1.00;0.50;;;18.80;99.90;;;;;;5032154;28;20706;-81
2021/08/12 01:41:37;;;;;;;2.20;0.50;;;18.40;99.90;;;;;;5014403;28;20218;-83
2021/08/12 01:44:05;;;;;;;0.83;0.67;;;18.40;99.90;;;;;;5007667;28;20267;-84
2021/08/12 01:46:34;;;;;;;0.47;0.40;;;18.40;99.90;;;;;;5022353;28;20182;-83
2021/08/12 01:49:01;;;;;;;0.60;0.50;;;18.40;99.90;;;;;;5013563;28;20215;-84
2021/08/12 01:51:27;;;;;;;0.57;0.40;;;18.50;99.90;;;;;;5014771;28;20255;-82
2021/08/12 01:53:56;;;;;;;0.30;0.30;;;18.60;99.90;;;;;;5015598;28;20360;-83
2021/08/12 01:56:23;;;;;;;0.33;0.33;;;18.60;99.90;;;;;;5012553;28;20325;-82
2021/08/12 01:58:50;;;;;;;0.47;0.37;;;18.60;99.90;;;;;;5014684;28;20269;-81
2021/08/12 02:01:18;;;;;;;3.30;0.60;;;18.60;99.90;;;;;;5012587;28;20209;-85
2021/08/12 02:03:45;;;;;;;3.77;0.63;;;18.60;99.90;;;;;;5014100;28;20646;-85
2021/08/12 02:06:12;;;;;;;0.37;0.37;;;18.50;99.90;;;;;;5032762;28;20334;-81
2021/08/12 02:08:38;;;;;;;0.50;0.50;;;18.70;99.90;;;;;;5033328;28;20185;-82
2021/08/12 02:11:04;;;;;;;0.90;0.80;;;18.70;99.90;;;;;;5016442;28;20281;-82
2021/08/12 02:13:29;;;;;;;0.23;0.23;;;18.70;99.90;;;;;;5017415;28;20274;-82
2021/08/12 02:15:55;;;;;;;0.30;0.30;;;18.70;99.90;;;;;;5016398;28;20179;-82
2021/08/12 02:18:21;;;;;;;0.37;0.37;;;18.70;99.90;;;;;;5016133;28;20186;-82
2021/08/12 02:20:55;;;;;;;0.10;0.10;;;18.70;99.90;;;;;;5015442;28;20186;-82
2021/08/12 02:23:32;;;;;;;0.27;0.27;;;18.80;99.90;;;;;;5003690;28;20209;-82
2021/08/12 02:26:05;;;;;;;0.33;0.33;;;18.70;99.90;;;;;;5032297;28;20201;-83
2021/08/12 02:28:34;;;;;;;2.13;0.70;;;18.60;99.90;;;;;;5018268;28;20190;-83
2021/08/12 02:31:03;;;;;;;0.50;0.50;;;18.40;99.90;;;;;;5010427;28;20310;-83
2021/08/12 02:33:36;;;;;;;0.30;0.30;;;18.00;99.90;;;;;;5008753;28;20184;-83
2021/08/12 02:36:05;;;;;;;0.20;0.20;;;18.00;99.90;;;;;;5010554;28;20618;-83
2021/08/12 02:38:31;;;;;;;0.43;0.43;;;18.10;99.90;;;;;;5030284;28;20182;-83
2021/08/12 02:40:58;;;;;;;0.40;0.40;;;18.10;99.90;;;;;;5013013;28;20174;-83
2021/08/12 02:43:25;;;;;;;0.30;0.30;;;18.20;99.90;;;;;;5030744;28;20237;-82
2021/08/12 02:45:54;;;;;;;0.27;0.20;;;18.30;99.90;;;;;;5010641;28;20186;-83
2021/08/12 02:48:24;;;;;;;0.10;0.10;;;18.30;99.90;;;;;;5009616;28;20186;-82
2021/08/12 02:50:51;;;;;;;2.00;0.43;;;18.30;99.90;;;;;;5012409;28;20198;-83
2021/08/12 02:53:17;;;;;;;0.40;0.40;;;18.30;99.90;;;;;;5012671;28;20183;-83
2021/08/12 02:55:44;;;;;;;0.43;0.43;;;18.20;99.90;;;;;;5011349;28;20347;-83
2021/08/12 02:58:10;;;;;;;0.40;0.40;;;18.20;99.90;;;;;;5005949;28;20243;-83
2021/08/12 03:00:38;;;;;;;0.20;0.20;;;18.20;99.90;;;;;;5009957;28;20186;-83
2021/08/12 03:03:05;;;;;;;0.27;0.27;;;18.20;99.90;;;;;;5011806;28;20225;-83
2021/08/12 03:05:32;;;;;;;0.40;0.40;;;18.30;99.90;;;;;;5012165;28;20189;-82
2021/08/12 03:07:58;;;;;;;0.23;0.23;;;18.30;99.90;;;;;;5012627;28;20185;-83
2021/08/12 03:10:25;;;;;;;0.20;0.20;;;18.30;99.90;;;;;;5031100;28;20328;-82
2021/08/12 03:12:52;;;;;;;0.30;0.30;;;18.30;99.90;;;;;;5012901;28;20201;-83
2021/08/12 03:15:18;;;;;;;0.37;0.33;;;18.30;99.90;;;;;;5030060;28;20265;-83
2021/08/12 03:17:44;;;;;;;1.13;0.50;;;18.20;99.90;;;;;;5013028;28;20182;-83
2021/08/12 03:20:11;;;;;;;0.50;0.33;;;18.10;99.90;;;;;;5012556;28;20186;-82
2021/08/12 03:22:36;;;;;;;0.27;0.27;;;18.00;99.90;;;;;;5029042;28;20690;-83
2021/08/12 03:25:03;;;;;;;0.23;0.23;;;17.80;99.90;;;;;;5012730;28;20186;-83
2021/08/12 03:27:30;;;;;;;0.87;0.37;;;17.80;99.90;;;;;;5011439;28;20189;-83
2021/08/12 03:29:55;;;;;;;0.30;0.30;;;17.90;99.90;;;;;;5012481;28;20182;-83
2021/08/12 03:32:21;;;;;;;0.20;0.20;;;17.90;99.90;;;;;;5030309;28;20202;-81
2021/08/12 03:34:47;;;;;;;5.70;0.50;;;17.90;99.90;;;;;;5012600;28;20217;-83
2021/08/12 03:37:14;;;;;;;0.33;0.33;;;18.00;99.90;;;;;;5024651;28;20825;-83
2021/08/12 03:39:39;;;;;;;3.27;0.70;;;18.00;99.90;;;;;;5006377;28;20187;-81
2021/08/12 03:42:05;;;;;;;0.30;0.30;;;17.90;99.90;;;;;;5007049;28;20234;-83
2021/08/12 03:44:31;;;;;;;0.40;0.40;;;17.90;99.90;;;;;;5011055;28;20583;-83
2021/08/12 03:46:57;;;;;;;0.40;0.30;;;17.80;99.90;;;;;;5032107;28;20217;-83
2021/08/12 03:49:23;;;;;;;0.43;0.43;;;17.80;99.90;;;;;;5032708;28;20266;-81
2021/08/12 03:51:49;;;;;;;0.60;0.37;;;17.90;99.90;;;;;;5016174;28;20202;-83
2021/08/12 03:54:15;;;;;;;0.30;0.30;;;17.90;99.90;;;;;;5016022;28;20243;-83
2021/08/12 03:56:41;;;;;;;0.27;0.27;;;17.80;99.90;;;;;;5016180;28;20341;-82
2021/08/12 03:59:06;;;;;;;0.33;0.33;;;17.80;99.90;;;;;;5031590;28;20357;-82
2021/08/12 04:01:33;;;;;;;0.90;0.70;;;17.80;99.90;;;;;;5026671;28;20211;-83
2021/08/12 04:03:59;;;;;;;0.33;0.33;;;17.90;99.90;;;;;;5016817;28;20272;-83
2021/08/12 04:06:25;;;;;;;0.60;0.60;;;17.90;99.90;;;;;;5016032;28;20193;-83
2021/08/12 04:08:50;;;;;;;0.30;0.30;;;17.90;99.90;;;;;;5026294;28;20549;-83
2021/08/12 04:11:16;;;;;;;0.30;0.30;;;17.90;99.90;;;;;;5033903;28;20209;-81
2021/08/12 04:13:42;;;;;;;0.40;0.40;;;18.00;99.90;;;;;;5015398;28;20183;-83
2021/08/12 04:16:07;;;;;;;1.13;0.40;;;18.00;99.90;;;;;;5016411;28;20182;-81
2021/08/12 04:18:33;;;;;;;0.67;0.67;;;17.90;99.90;;;;;;5014714;28;20209;-83
2021/08/12 04:20:59;;;;;;;0.50;0.50;;;17.90;99.90;;;;;;5033082;28;20221;-83
2021/08/12 04:23:24;;;;;;;0.60;0.60;;;18.00;99.90;;;;;;5014658;28;20214;-81
2021/08/12 04:25:52;;;;;;;0.67;0.67;;;18.00;99.90;;;;;;5027103;28;20246;-83
2021/08/12 04:28:18;;;;;;;0.40;0.40;;;18.00;99.90;;;;;;5031687;28;20174;-83
2021/08/12 04:30:43;;;;;;;0.57;0.57;;;18.00;99.90;;;;;;5033884;28;20174;-83
2021/08/12 04:33:09;;;;;;;0.83;0.83;;;18.10;99.90;;;;;;5014513;28;20674;-81
2021/08/12 04:35:34;;;;;;;0.13;0.13;;;18.00;99.90;;;;;;5010511;28;20277;-83
2021/08/12 04:38:00;;;;;;;0.40;0.40;;;18.10;99.90;;;;;;5014096;28;20178;-83
2021/08/12 04:40:25;;;;;;;0.23;0.23;;;18.20;99.90;;;;;;5013254;28;20198;-83
2021/08/12 04:42:52;;;;;;;1.67;0.60;;;18.30;99.90;;;;;;5036578;28;20279;-82
2021/08/12 04:45:20;;;;;;;0.40;0.40;;;18.40;99.90;;;;;;5015125;28;20183;-83
2021/08/12 04:47:45;;;;;;;0.97;0.70;;;18.30;99.90;;;;;;5014922;28;20216;-85
2021/08/12 04:50:12;;;;;;;0.20;0.20;;;18.40;99.90;;;;;;5011026;28;20191;-84
2021/08/12 04:52:40;;;;;;;0.67;0.67;;;18.50;99.90;;;;;;5013361;28;20218;-85
2021/08/12 04:55:07;;;;;;;0.37;0.33;;;18.60;99.90;;;;;;5014812;28;20190;-85
2021/08/12 04:57:33;;;;;;;0.37;0.37;;;18.70;99.90;;;;;;5011361;28;20190;-82
2021/08/12 04:59:58;;;;;;;0.70;0.50;;;18.70;99.90;;;;;;5014314;28;20202;-81
2021/08/12 05:02:24;;;;;;;0.97;0.47;;;18.60;99.90;;;;;;5037324;28;20215;-82
2021/08/12 05:04:49;;;;;;;0.40;0.40;;;18.50;99.90;;;;;;5022305;28;20213;-82
2021/08/12 05:07:15;;;;;;;0.50;0.50;;;18.60;99.90;;;;;;5015846;28;20659;-82
2021/08/12 05:09:41;;;;;;;0.37;0.37;;;18.80;99.90;;;;;;5018296;28;20571;-82
2021/08/12 05:12:07;;;;;;;0.27;0.27;;;18.80;99.90;;;;;;5035217;28;20206;-82
2021/08/12 05:14:32;;;;;;;0.33;0.33;;;19.10;99.90;;;;;;5013570;28;20205;-84
2021/08/12 05:16:58;;;;;;;0.30;0.30;;;19.30;99.90;;;;;;5032926;28;20608;-85
2021/08/12 05:19:24;;;;;;;0.20;0.20;;;19.50;99.90;;;;;;5010594;28;20758;-85
2021/08/12 05:21:49;;;;;;;0.60;0.30;;;19.60;99.90;;;;;;5010327;28;20217;-85
2021/08/12 05:24:15;;;;;;;0.40;0.40;;;19.70;99.90;;;;;;5032778;28;20675;-84
2021/08/12 05:26:40;;;;;;;0.67;0.60;;;19.80;99.90;;;;;;5027462;28;20182;-83
2021/08/12 05:29:07;;;;;;;1.00;0.30;;;19.70;99.90;;;;;;5020451;28;20204;-82
2021/08/12 05:31:33;;;;;;;0.50;0.40;;;19.90;99.90;;;;;;5011472;28;20669;-83
2021/08/12 05:33:59;;;;;;;0.33;0.33;;;20.00;99.90;;;;;;5010917;28;20240;-83
2021/08/12 05:36:24;;;;;;;0.40;0.40;;;20.10;99.90;;;;;;5011314;28;20193;-83
2021/08/12 05:38:50;;;;;;;0.40;0.40;;;20.20;99.90;;;;;;5007630;28;20197;-81
2021/08/12 05:41:16;;;;;;;0.40;0.40;;;20.30;99.90;;;;;;5031305;28;20210;-83
2021/08/12 05:43:41;;;;;;;1.30;0.50;;;20.40;99.90;;;;;;5031989;28;20193;-83
2021/08/12 05:46:07;;;;;;;0.33;0.33;;;20.40;99.90;;;;;;5025816;28;20190;-83
2021/08/12 05:48:33;;;;;;;0.73;0.50;;;20.40;99.90;;;;;;5013467;28;20268;-83
2021/08/12 05:50:58;;;;;;;0.50;0.50;;;20.40;99.90;;;;;;5012944;28;20312;-83
2021/08/12 05:53:25;;;;;;;0.27;0.27;;;20.50;99.90;;;;;;5014090;28;20203;-83
2021/08/12 05:55:51;;;;;;;1.60;0.83;;;20.50;99.90;;;;;;5030110;28;20571;-83
2021/08/12 05:58:16;;;;;;;0.53;0.53;;;20.30;99.90;;;;;;5008816;28;20186;-83
2021/08/12 06:00:42;;;;;;;0.50;0.50;;;20.20;99.90;;;;;;5014425;28;20179;-84
2021/08/12 06:03:10;;;;;;;0.40;0.40;;;20.10;99.90;;;;;;5016495;28;20744;-83
2021/08/12 06:05:36;;;;;;;0.40;0.40;;;20.10;99.90;;;;;;5023979;28;20186;-84
2021/08/12 06:08:03;;;;;;;0.87;0.40;;;20.20;99.90;;;;;;5012431;28;20182;-84
2021/08/12 06:10:30;;;;;;;0.40;0.40;;;20.30;99.90;;;;;;5013498;28;20659;-83
2021/08/12 06:12:56;;;;;;;0.67;0.50;;;20.30;99.90;;;;;;5006884;28;20252;-82
2021/08/12 06:15:23;;;;;;;0.63;0.50;;;20.40;99.90;;;;;;5013012;28;20186;-83
2021/08/12 06:17:48;;;;;;;0.50;0.50;;;20.60;99.90;;;;;;5010804;28;20193;-83
2021/08/12 06:20:14;;;;;;;0.60;0.60;;;20.70;99.90;;;;;;5030215;28;20244;-83
2021/08/12 06:22:40;;;;;;;0.20;0.20;;;20.80;99.90;;;;;;5012883;28;20221;-83
2021/08/12 06:25:06;;;;;;;1.70;0.60;;;20.70;99.90;;;;;;5013165;28;20229;-83
2021/08/12 06:27:31;;;;;;;1.67;1.17;;;20.60;99.90;;;;;;5012439;28;20549;-84
2021/08/12 06:29:57;;;;;;;2.33;0.47;;;20.50;99.90;;;;;;5011240;28;20269;-83
2021/08/12 06:32:23;;;;;;;0.53;0.47;;;20.60;99.90;;;;;;5013106;28;20217;-83
2021/08/12 06:34:49;;;;;;;0.70;0.50;;;20.60;99.90;;;;;;5029005;28;20228;-82
2021/08/12 06:37:14;;;;;;;0.73;0.50;;;20.70;99.90;;;;;;5013288;28;20194;-83
2021/08/12 06:39:40;;;;;;;1.53;0.37;;;20.70;99.90;;;;;;5012699;28;20674;-84
2021/08/12 06:42:06;;;;;;;0.83;0.83;;;20.80;99.90;;;;;;5008025;28;20635;-82
2021/08/12 06:44:31;;;;;;;0.50;0.50;;;20.90;99.90;;;;;;5013154;28;20187;-84
2021/08/12 06:46:57;;;;;;;0.83;0.80;;;21.20;99.90;;;;;;5011544;28;20194;-84
2021/08/12 06:49:22;;;;;;;0.73;0.60;;;21.30;99.90;;;;;;5026242;28;20198;-84
2021/08/12 06:51:48;;;;;;;0.50;0.50;;;21.50;99.90;;;;;;5011028;28;20836;-84
2021/08/12 06:54:14;;;;;;;0.97;0.77;;;21.80;99.90;;;;;;5028544;28;20190;-84
2021/08/12 06:56:39;;;;;;;0.60;0.50;;;21.90;99.90;;;;;;5011872;28;20280;-84
2021/08/12 06:59:05;;;;;;;1.13;0.70;;;22.10;99.90;;;;;;5012327;28;20195;-84
2021/08/12 07:01:31;;;;;;;0.53;0.53;;;22.30;99.90;;;;;;5013599;28;20210;-84
2021/08/12 07:03:58;;;;;;;0.73;0.60;;;22.40;99.90;;;;;;5031338;28;20178;-83
2021/08/12 07:06:24;;;;;;;0.30;0.30;;;22.50;99.90;;;;;;5025542;28;20182;-83
2021/08/12 07:08:54;;;;;;;0.40;0.40;;;22.60;99.90;;;;;;5011284;28;20187;-84
2021/08/12 07:11:23;;;;;;;0.50;0.50;;;22.70;99.90;;;;;;5029226;28;20206;-83
2021/08/12 07:13:49;;;;;;;1.30;1.20;;;22.90;99.90;;;;;;5009677;28;20186;-84
2021/08/12 07:16:15;;;;;;;0.87;0.60;;;22.50;99.90;;;;;;5011630;28;20241;-83
2021/08/12 07:18:42;;;;;;;0.67;0.40;;;22.70;99.90;;;;;;5012061;28;20248;-85
2021/08/12 07:21:15;;;;;;;1.23;0.67;;;22.90;99.90;;;;;;5012109;28;20563;-84
2021/08/12 07:23:41;;;;;;;0.37;0.37;;;23.00;99.90;;;;;;5015809;28;20308;-82
2021/08/12 07:26:12;;;;;;;1.03;0.50;;;23.10;99.90;;;;;;5030960;28;20285;-84
2021/08/12 07:28:37;;;;;;;0.40;0.40;;;23.30;99.90;;;;;;5012504;28;20276;-83
2021/08/12 07:31:03;;;;;;;0.70;0.40;;;23.50;99.90;;;;;;5018425;28;20280;-83
2021/08/12 07:33:28;;;;;;;0.50;0.50;;;23.60;99.90;;;;;;5027680;28;20196;-83
2021/08/12 07:35:54;;;;;;;0.63;0.63;;;23.60;99.90;;;;;;5012976;28;20592;-84
2021/08/12 07:38:19;;;;;;;0.70;0.67;;;23.80;99.90;;;;;;5032293;28;20720;-84
2021/08/12 07:40:45;;;;;;;0.60;0.60;;;23.90;99.90;;;;;;5015744;28;20190;-84
2021/08/12 07:43:10;;;;;;;0.87;0.80;;;23.90;99.90;;;;;;5015871;28;20210;-84
2021/08/12 07:45:36;;;;;;;0.53;0.53;;;24.00;99.90;;;;;;5017596;28;20236;-83
2021/08/12 07:48:01;;;;;;;0.90;0.67;;;23.90;99.90;;;;;;5016673;28;20186;-85
2021/08/12 07:50:27;;;;;;;0.50;0.50;;;23.90;99.90;;;;;;5033246;28;20194;-84
2021/08/12 07:52:54;;;;;;;0.20;0.20;;;24.10;99.90;;;;;;5016596;28;20674;-84
2021/08/12 07:55:21;;;;;;;0.50;0.50;;;24.20;99.90;;;;;;5014326;28;20220;-84
2021/08/12 07:57:48;;;;;;;1.13;0.70;;;23.90;99.90;;;;;;5013298;28;20223;-84
2021/08/12 08:00:14;;;;;;;1.73;0.83;;;24.20;99.90;;;;;;5016700;28;20325;-84
2021/08/12 08:02:47;;;;;;;0.33;0.23;;;24.30;99.90;;;;;;5015998;28;20210;-84
2021/08/12 08:05:15;;;;;;;0.60;0.50;;;24.30;99.90;;;;;;5032730;28;20190;-84
2021/08/12 08:07:41;;;;;;;1.13;1.00;;;24.60;99.90;;;;;;5014069;28;20197;-84
2021/08/12 08:10:07;;;;;;;1.47;0.87;;;24.60;99.90;;;;;;5014327;28;20647;-84
2021/08/12 08:12:32;;;;;;;3.50;1.30;;;24.80;99.90;;;;;;5015811;28;20235;-84
2021/08/12 08:14:58;;;;;;;3.43;0.90;;;24.80;99.90;;;;;;5013182;28;20221;-84
2021/08/12 08:17:23;;;;;;;0.40;0.40;;;24.90;99.90;;;;;;5012637;28;20193;-84
2021/08/12 08:19:49;;;;;;;2.10;1.17;;;25.00;99.90;;;;;;5033232;28;20194;-84
2021/08/12 08:22:14;;;;;;;0.80;0.80;;;25.10;99.90;;;;;;5015593;28;20561;-87
2021/08/12 08:24:40;;;;;;;1.80;1.17;;;25.20;99.90;;;;;;5015761;28;20708;-83
2021/08/12 08:27:06;;;;;;;0.50;0.50;;;25.10;99.90;;;;;;5030419;28;20179;-83
2021/08/12 08:29:31;;;;;;;0.60;0.60;;;25.60;99.90;;;;;;5014676;28;20197;-82
2021/08/12 08:31:57;;;;;;;1.30;1.20;;;25.90;99.90;;;;;;5031393;28;20581;-82
2021/08/12 08:34:22;;;;;;;0.53;0.53;;;26.20;99.90;;;;;;5013650;28;20286;-82
2021/08/12 08:36:48;;;;;;;2.73;0.90;;;26.40;99.90;;;;;;5015909;28;20639;-83
2021/08/12 08:39:13;;;;;;;1.93;1.17;;;26.20;99.90;;;;;;5014469;28;20186;-83
2021/08/12 08:41:40;;;;;;;0.40;0.40;;;26.30;99.90;;;;;;5010055;28;20229;-83
2021/08/12 08:44:09;;;;;;;0.80;0.57;;;26.60;99.90;;;;;;5032713;28;20178;-83
2021/08/12 08:46:35;;;;;;;0.80;0.80;;;26.70;99.90;;;;;;5014917;28;20174;-83
2021/08/12 08:49:02;;;;;;;0.97;0.87;;;27.00;99.90;;;;;;5015039;28;20205;-83
2021/08/12 08:51:28;;;;;;;2.43;1.30;;;26.70;99.90;;;;;;5013931;28;20210;-83
2021/08/12 08:53:54;;;;;;;2.67;0.80;;;26.40;99.90;;;;;;5003429;28;20329;-81
2021/08/12 08:56:20;;;;;;;0.90;0.90;;;26.60;99.90;;;;;;5011654;28;20182;-83
2021/08/12 08:58:46;;;;;;;0.57;0.53;;;27.10;99.90;;;;;;5014737;28;20220;-83
2021/08/12 09:01:12;;;;;;;1.13;1.03;;;27.30;99.90;;;;;;5014075;28;20194;-83
2021/08/12 09:03:38;;;;;;;0.43;0.43;;;27.50;99.90;;;;;;5014874;28;20694;-81
2021/08/12 09:06:06;;;;;;;1.43;0.80;;;27.50;99.90;;;;;;5013035;28;20710;-83
2021/08/12 09:08:31;;;;;;;1.07;0.57;;;27.60;99.90;;;;;;5014813;28;20209;-83
2021/08/12 09:10:57;;;;;;;0.70;0.70;;;27.60;99.90;;;;;;5043744;28;20224;-83
2021/08/12 09:13:23;;;;;;;0.50;0.50;;;27.80;99.90;;;;;;5032498;28;20195;-83
2021/08/12 09:15:49;;;;;;;0.47;0.47;;;27.90;99.90;;;;;;5014720;28;20186;-83
2021/08/12 09:18:22;;;;;;;1.23;0.70;;;28.00;99.90;;;;;;5014094;28;20198;-83
2021/08/12 09:20:50;;;;;;;0.70;0.70;;;28.10;99.90;;;;;;5014187;28;20200;-82
2021/08/12 09:23:21;;;;;;;0.70;0.70;;;28.20;99.90;;;;;;5016089;28;20634;-83
2021/08/12 09:25:48;;;;;;;0.67;0.67;;;28.20;99.90;;;;;;5014575;28;20182;-83
2021/08/12 09:28:26;;;;;;;0.77;0.77;;;28.40;99.90;;;;;;5031832;28;20175;-83
2021/08/12 09:30:57;;;;;;;1.07;0.70;;;28.30;99.90;;;;;;5031764;28;20236;-83
2021/08/12 09:33:23;;;;;;;0.73;0.63;;;28.20;99.90;;;;;;5030712;28;20220;-82
2021/08/12 09:35:48;;;;;;;0.70;0.70;;;27.90;99.90;;;;;;5012335;28;20210;-83
2021/08/12 09:38:15;;;;;;;0.43;0.43;;;28.00;99.90;;;;;;5014198;28;20220;-83
2021/08/12 09:40:42;;;;;;;1.27;1.13;;;28.20;99.90;;;;;;5013321;28;20843;-83
2021/08/12 09:43:10;;;;;;;1.03;0.70;;;28.50;99.90;;;;;;5016377;28;20297;-83
2021/08/12 09:45:38;;;;;;;0.60;0.60;;;28.40;99.90;;;;;;5013478;28;20187;-84
2021/08/12 09:48:20;;;;;;;1.07;0.90;;;28.60;99.90;;;;;;5031627;28;20748;-83
2021/08/12 09:50:59;;;;;;;1.08;1.05;;;28.70;99.90;;;;;;5013770;28;20193;-84
2021/08/12 09:53:26;;;;;;;1.73;1.07;;;28.90;99.90;;;;;;5031243;28;20190;-83
2021/08/12 09:55:52;;;;;;;0.50;0.50;;;29.00;99.90;;;;;;5013752;28;20307;-83
2021/08/12 09:58:19;;;;;;;0.73;0.68;;;29.00;99.90;;;;;;5030148;28;20187;-84
2021/08/12 10:00:48;;;;;;;1.00;0.80;;;28.90;99.90;;;;;;5029475;28;20186;-84
2021/08/12 10:03:27;;;;;;;3.27;0.93;;;28.40;99.90;;;;;;5010258;28;20582;-83
2021/08/12 10:05:55;;;;;;;0.45;0.45;;;28.60;99.90;;;;;;5036957;28;20190;-83
2021/08/12 10:08:28;;;;;;;0.90;0.68;;;28.90;99.90;;;;;;5031463;28;20195;-81
2021/08/12 10:10:55;;;;;;;0.77;0.77;;;29.40;99.90;;;;;;5013037;28;20206;-82
2021/08/12 10:13:21;;;;;;;1.50;1.20;;;29.00;99.90;;;;;;5012490;28;20197;-84
2021/08/12 10:15:50;;;;;;;0.70;0.70;;;28.80;99.90;;;;;;5021205;28;20186;-83
2021/08/12 10:18:19;;;;;;;0.95;0.85;;;29.20;99.90;;;;;;5030153;28;20545;-83
2021/08/12 10:20:46;;;;;;;0.88;0.88;;;29.40;99.90;;;;;;5010170;28;20639;-83
2021/08/12 10:23:13;;;;;;;0.77;0.55;;;29.10;99.90;;;;;;5006485;28;20345;-83
2021/08/12 10:25:40;;;;;;;2.63;0.50;;;29.30;99.90;;;;;;5009489;28;20707;-83
2021/08/12 10:28:08;;;;;;;0.60;0.60;;;29.50;99.90;;;;;;5028842;28;20196;-83
2021/08/12 10:30:35;;;;;;;1.25;0.40;;;29.30;99.90;;;;;;5013096;28;20324;-81
2021/08/12 10:33:03;;;;;;;0.93;0.90;;;29.20;99.90;;;;;;5012525;28;20210;-83
2021/08/12 10:35:32;;;;;;;0.65;0.65;;;28.60;99.90;;;;;;5013759;28;20214;-82
2021/08/12 10:37:58;;;;;;;0.95;0.75;;;28.30;99.90;;;;;;5029344;28;20178;-84
2021/08/12 10:40:27;;;;;;;0.47;0.30;;;28.10;99.90;;;;;;5012338;28;20186;-82
2021/08/12 10:42:54;;;;;;;1.57;1.30;;;28.10;99.90;;;;;;5010139;28;20261;-83
2021/08/12 10:45:21;;;;;;;1.83;1.50;;;27.60;99.90;;;;;;5031425;28;20174;-84
2021/08/12 10:47:55;;;;;;;1.13;0.90;;;27.30;99.90;;;;;;5012959;28;20519;-84
2021/08/12 10:50:26;;;;;;;1.17;1.10;;;27.30;99.90;;;;;;5012250;28;20655;-83
2021/08/12 10:53:06;;;;;;;1.00;0.73;;;27.90;99.90;;;;;;5011819;28;20740;-82
2021/08/12 10:55:33;;;;;;;1.00;0.90;;;28.30;99.90;;;;;;5013588;28;20213;-83
2021/08/12 10:58:17;;;;;;;1.73;0.97;;;28.60;99.90;;;;;;5025182;28;20190;-81
2021/08/12 11:00:54;;;;;;;0.35;0.35;;;28.60;99.90;;;;;;5024068;28;20183;-83
2021/08/12 11:03:31;;;;;;;1.52;1.20;;;28.90;99.90;;;;;;5010211;28;20293;-83
2021/08/12 11:06:07;;;;;;;2.40;0.90;;;28.50;99.90;;;;;;5012059;28;20617;-82
2021/08/12 11:08:48;;;;;;;1.13;0.82;;;28.70;99.90;;;;;;5027857;28;20204;-83
2021/08/12 11:11:34;;;;;;;0.60;0.60;;;28.90;99.90;;;;;;5015667;28;20202;-83
2021/08/12 11:14:08;;;;;;;0.80;0.80;;;29.10;99.90;;;;;;5016182;28;20283;-83
2021/08/12 11:16:45;;;;;;;1.17;0.65;;;29.20;99.90;;;;;;5028704;28;20234;-83
2021/08/12 11:19:25;;;;;;;0.63;0.63;;;29.30;99.90;;;;;;5027223;28;20239;-83
2021/08/12 11:21:53;;;;;;;0.80;0.75;;;29.40;99.90;;;;;;5022886;28;20222;-84
2021/08/12 11:24:24;;;;;;;0.45;0.45;;;29.50;99.90;;;;;;5010063;28;20182;-84
2021/08/12 11:26:52;;;;;;;0.50;0.50;;;29.70;99.90;;;;;;5027247;28;20194;-83
2021/08/12 11:29:31;;;;;;;0.82;0.65;;;29.80;99.90;;;;;;5011165;28;20243;-83
2021/08/12 11:32:10;;;;;;;0.47;0.47;;;29.90;99.90;;;;;;5028953;28;20237;-82
2021/08/12 11:34:38;;;;;;;0.70;0.70;;;30.00;99.90;;;;;;5028665;28;20182;-83
2021/08/12 11:37:12;;;;;;;1.83;0.57;;;29.90;99.90;;;;;;5022456;28;20677;-82
2021/08/12 11:39:52;;;;;;;0.73;0.50;;;29.60;99.90;;;;;;5028997;28;20202;-83
2021/08/12 11:42:30;;;;;;;0.30;0.30;;;29.90;99.90;;;;;;5010276;28;20297;-82
2021/08/12 11:45:02;;;;;;;0.30;0.30;;;30.00;99.90;;;;;;5025748;28;20266;-83
2021/08/12 11:47:28;;;;;;;0.95;0.95;;;30.00;99.90;;;;;;5012043;28;20689;-83
2021/08/12 11:49:56;;;;;;;0.68;0.68;;;28.90;99.90;;;;;;5029206;28;20175;-83
2021/08/12 11:52:30;;;;;;;0.52;0.52;;;29.40;99.90;;;;;;5011705;28;20198;-83
2021/08/12 11:55:05;;;;;;;1.83;0.52;;;29.90;99.90;;;;;;5007077;28;20189;-83
2021/08/12 11:57:45;;;;;;;1.27;0.88;;;30.30;99.90;;;;;;5010978;28;20182;-83
2021/08/12 12:00:28;;;;;;;3.42;1.52;;;30.50;99.90;;;;;;5030642;28;20951;-84
2021/08/12 12:02:59;;;;;;;1.15;0.88;;;30.10;99.90;;;;;;5011992;28;20218;-83
2021/08/12 12:05:29;;;;;;;0.85;0.85;;;29.60;99.90;;;;;;5012105;28;20238;-83
2021/08/12 12:08:08;;;;;;;0.77;0.70;;;30.00;99.90;;;;;;5031303;28;20182;-84
2021/08/12 12:10:45;;;;;;;0.68;0.68;;;29.30;99.90;;;;;;5015719;28;20186;-84
2021/08/12 12:13:13;;;;;;;0.50;0.50;;;29.00;99.90;;;;;;5032958;28;20559;-83
2021/08/12 12:15:50;;;;;;;0.88;0.68;;;29.80;99.90;;;;;;5015778;28;20236;-83
2021/08/12 12:18:32;;;;;;;0.60;0.60;;;30.00;99.90;;;;;;5032466;28;20212;-84
2021/08/12 12:21:06;;;;;;;1.02;0.77;;;30.40;99.90;;;;;;5015406;28;20244;-83
2021/08/12 12:23:32;;;;;;;1.00;0.90;;;30.40;99.90;;;;;;5009075;28;20325;-83
2021/08/12 12:25:58;;;;;;;0.52;0.40;;;30.00;99.90;;;;;;5015628;28;22025;-81
2021/08/12 12:28:24;;;;;;;0.55;0.55;;;30.20;99.90;;;;;;5032281;28;20209;-82
2021/08/12 12:30:50;;;;;;;0.60;0.60;;;30.30;99.90;;;;;;5032126;28;20178;-83
2021/08/12 12:33:17;;;;;;;0.55;0.55;;;30.30;99.90;;;;;;5018095;28;20183;-83
2021/08/12 12:35:46;;;;;;;0.45;0.45;;;30.30;99.90;;;;;;5033876;28;20261;-83
2021/08/12 12:38:17;;;;;;;1.30;0.52;;;30.20;99.90;;;;;;5029894;28;20178;-84
2021/08/12 12:40:44;;;;;;;0.50;0.50;;;30.20;99.90;;;;;;5033832;28;20579;-83
2021/08/12 12:43:11;;;;;;;1.42;1.08;;;30.00;99.90;;;;;;5031645;28;20221;-84
2021/08/12 12:45:51;;;;;;;0.82;0.80;;;30.00;99.90;;;;;;5033928;28;20757;-84
2021/08/12 12:48:30;;;;;;;0.43;0.43;;;30.10;99.90;;;;;;5014608;28;20670;-83
2021/08/12 12:50:56;;;;;;;1.00;0.70;;;30.30;99.90;;;;;;5029546;28;20261;-83
2021/08/12 12:53:28;;;;;;;0.90;0.90;;;30.60;99.90;;;;;;5023075;28;20213;-83